createdAt,value
2019-02-18T00:00:50.264Z,0.00
2019-02-18T00:02:01.417Z,0.00
2019-02-18T00:03:12.624Z,0.00
2019-02-18T00:04:23.262Z,0.00
2019-02-18T00:05:33.916Z,0.00
2019-02-18T00:06:45.070Z,0.00
2019-02-18T00:07:56.204Z,0.00
2019-02-18T00:09:07.347Z,0.00
2019-02-18T00:10:19.475Z,0.00
2019-02-18T00:11:30.624Z,0.00
2019-02-18T00:12:41.778Z,0.00
2019-02-18T00:13:52.905Z,0.00
2019-02-18T00:15:04.037Z,0.00
2019-02-18T00:16:15.186Z,0.00
2019-02-18T00:17:26.324Z,0.00
2019-02-18T00:18:37.457Z,0.00
2019-02-18T00:19:48.090Z,0.00
2019-02-18T00:20:59.250Z,0.00
2019-02-18T00:22:11.371Z,0.00
2019-02-18T00:23:22.624Z,0.00
2019-02-18T00:24:33.759Z,0.00
2019-02-18T00:25:44.898Z,0.00
2019-02-18T00:26:55.544Z,0.00
2019-02-18T00:28:06.746Z,0.00
2019-02-18T00:29:17.900Z,0.00
2019-02-18T00:30:29.033Z,0.00
2019-02-18T00:31:40.172Z,0.00
2019-02-18T00:32:52.299Z,0.00
2019-02-18T00:34:03.433Z,0.00
2019-02-18T00:35:14.620Z,0.00
2019-02-18T00:36:25.281Z,0.00
2019-02-18T00:37:37.421Z,0.00
2019-02-18T00:38:48.655Z,0.00
2019-02-18T00:39:59.751Z,0.00
2019-02-18T00:41:10.876Z,0.00
2019-02-18T00:42:22.025Z,0.00
2019-02-18T00:43:32.703Z,0.00
2019-02-18T00:44:43.850Z,0.00
2019-02-18T00:45:54.987Z,0.00
2019-02-18T00:47:06.121Z,0.00
2019-02-18T00:48:17.254Z,0.00
2019-02-18T00:49:29.381Z,0.00
2019-02-18T00:50:40.510Z,0.00
2019-02-18T00:51:52.156Z,0.00
2019-02-18T00:53:04.085Z,0.00
2019-02-18T00:54:14.432Z,0.00
2019-02-18T00:55:25.567Z,0.00
2019-02-18T00:56:36.717Z,0.00
2019-02-18T00:57:47.853Z,0.00
2019-02-18T00:58:58.999Z,0.00
2019-02-18T01:00:11.134Z,0.00
2019-02-18T01:01:22.258Z,0.00
2019-02-18T01:02:33.396Z,0.00
2019-02-18T01:03:44.634Z,0.00
2019-02-18T01:04:55.762Z,0.00
2019-02-18T01:06:06.897Z,0.00
2019-02-18T01:07:18.034Z,0.00
2019-02-18T01:08:29.159Z,0.00
2019-02-18T01:09:39.789Z,0.00
2019-02-18T01:10:50.924Z,0.00
2019-02-18T01:12:02.062Z,0.00
2019-02-18T01:13:12.698Z,0.00
2019-02-18T01:14:23.839Z,0.00
2019-02-18T01:15:34.953Z,0.00
2019-02-18T01:16:46.095Z,0.00
2019-02-18T01:17:56.726Z,0.00
2019-02-18T01:19:07.849Z,0.00
2019-02-18T01:20:18.983Z,0.00
2019-02-18T01:21:30.105Z,0.00
2019-02-18T01:22:41.243Z,0.00
2019-02-18T01:23:52.375Z,0.00
2019-02-18T01:25:03.504Z,0.00
2019-02-18T01:26:14.654Z,0.00
2019-02-18T01:27:25.789Z,0.00
2019-02-18T01:28:36.915Z,0.00
2019-02-18T01:29:48.050Z,0.00
2019-02-18T01:30:59.185Z,0.00
2019-02-18T01:32:10.308Z,0.00
2019-02-18T01:33:21.752Z,0.00
2019-02-18T01:34:32.875Z,0.00
2019-02-18T01:35:43.501Z,0.00
2019-02-18T01:36:54.132Z,0.00
2019-02-18T01:38:05.271Z,0.00
2019-02-18T01:39:16.392Z,0.00
2019-02-18T01:40:27.525Z,0.00
2019-02-18T01:41:38.662Z,0.00
2019-02-18T01:42:49.298Z,0.00
2019-02-18T01:44:00.446Z,0.00
2019-02-18T01:45:11.575Z,0.00
2019-02-18T01:46:22.696Z,0.00
2019-02-18T01:47:33.830Z,0.00
2019-02-18T01:48:44.962Z,0.00
2019-02-18T01:49:56.086Z,0.00
2019-02-18T01:51:07.210Z,0.00
2019-02-18T01:52:17.848Z,0.00
2019-02-18T01:53:28.979Z,0.00
2019-02-18T01:54:40.109Z,0.00
2019-02-18T01:55:50.739Z,0.00
2019-02-18T01:57:01.875Z,0.00
2019-02-18T01:58:12.994Z,0.00
2019-02-18T01:59:24.120Z,0.00
2019-02-18T02:00:34.746Z,0.00
2019-02-18T02:01:45.867Z,0.00
2019-02-18T02:02:56.983Z,0.00
2019-02-18T02:04:08.123Z,0.00
2019-02-18T02:05:19.238Z,0.00
2019-02-18T02:06:31.366Z,0.00
2019-02-18T02:07:42.644Z,0.00
2019-02-18T02:08:53.762Z,0.00
2019-02-18T02:10:04.885Z,0.00
2019-02-18T02:11:16.005Z,0.00
2019-02-18T02:12:28.128Z,0.00
2019-02-18T02:13:39.246Z,0.00
2019-02-18T02:14:53.343Z,0.00
2019-02-18T02:16:03.977Z,0.00
2019-02-18T02:17:15.105Z,0.00
2019-02-18T02:18:25.730Z,0.00
2019-02-18T02:19:36.360Z,0.00
2019-02-18T02:20:46.993Z,0.00
2019-02-18T02:21:58.132Z,0.00
2019-02-18T02:23:09.248Z,0.00
2019-02-18T02:24:20.377Z,0.00
2019-02-18T02:25:31.507Z,0.00
2019-02-18T02:26:42.133Z,0.00
2019-02-18T02:27:52.765Z,0.00
2019-02-18T02:29:03.897Z,0.00
2019-02-18T02:30:15.013Z,0.00
2019-02-18T02:31:26.143Z,0.00
2019-02-18T02:32:37.269Z,0.00
2019-02-18T02:33:48.396Z,0.00
2019-02-18T02:34:59.509Z,0.00
2019-02-18T02:36:10.654Z,0.00
2019-02-18T02:37:21.771Z,0.00
2019-02-18T02:38:32.890Z,0.00
2019-02-18T02:39:43.516Z,0.00
2019-02-18T02:40:54.151Z,0.00
2019-02-18T02:42:05.286Z,0.00
2019-02-18T02:43:16.389Z,0.00
2019-02-18T02:44:27.505Z,0.00
2019-02-18T02:45:38.630Z,0.00
2019-02-18T02:46:49.775Z,0.00
2019-02-18T02:48:00.910Z,0.00
2019-02-18T02:49:12.027Z,0.00
2019-02-18T02:50:23.142Z,0.00
2019-02-18T02:51:34.272Z,0.00
2019-02-18T02:52:45.400Z,0.00
2019-02-18T02:53:56.518Z,0.00
2019-02-18T02:55:07.632Z,0.00
2019-02-18T02:56:19.540Z,0.00
2019-02-18T02:57:30.682Z,0.00
2019-02-18T02:58:41.302Z,0.00
2019-02-18T02:59:52.415Z,0.00
2019-02-18T03:01:03.538Z,0.00
2019-02-18T03:02:14.684Z,0.00
2019-02-18T03:03:25.793Z,0.00
2019-02-18T03:04:36.424Z,0.00
2019-02-18T03:05:47.059Z,0.00
2019-02-18T03:06:58.173Z,0.00
2019-02-18T03:08:20.017Z,0.00
2019-02-18T03:09:20.405Z,0.00
2019-02-18T03:10:31.535Z,0.00
2019-02-18T03:11:42.655Z,0.00
2019-02-18T03:12:54.844Z,0.00
2019-02-18T03:14:05.392Z,0.00
2019-02-18T03:15:16.008Z,0.00
2019-02-18T03:16:27.118Z,0.00
2019-02-18T03:17:38.248Z,0.00
2019-02-18T03:18:49.371Z,0.00
2019-02-18T03:20:00.615Z,0.00
2019-02-18T03:21:11.238Z,0.00
2019-02-18T03:22:22.357Z,0.00
2019-02-18T03:23:33.491Z,0.00
2019-02-18T03:24:44.622Z,0.00
2019-02-18T03:25:55.242Z,0.00
2019-02-18T03:27:07.371Z,0.00
2019-02-18T03:28:18.612Z,0.00
2019-02-18T03:29:29.239Z,0.00
2019-02-18T03:30:40.368Z,0.00
2019-02-18T03:31:51.004Z,0.00
2019-02-18T03:33:02.116Z,0.00
2019-02-18T03:34:13.226Z,0.00
2019-02-18T03:35:24.350Z,0.00
2019-02-18T03:36:35.446Z,0.00
2019-02-18T03:37:46.092Z,0.00
2019-02-18T03:38:57.213Z,0.00
2019-02-18T03:40:08.346Z,0.00
2019-02-18T03:41:19.462Z,0.00
2019-02-18T03:42:30.574Z,0.00
2019-02-18T03:43:41.201Z,0.00
2019-02-18T03:44:52.311Z,0.00
2019-02-18T03:46:03.945Z,0.00
2019-02-18T03:47:15.050Z,0.00
2019-02-18T03:48:26.188Z,0.00
2019-02-18T03:49:37.307Z,0.00
2019-02-18T03:50:49.409Z,0.00
2019-02-18T03:52:00.629Z,0.00
2019-02-18T03:53:11.730Z,0.00
2019-02-18T03:54:22.353Z,0.00
2019-02-18T03:55:33.481Z,0.00
2019-02-18T03:56:44.089Z,0.00
2019-02-18T03:57:55.201Z,0.00
2019-02-18T03:59:06.314Z,0.00
2019-02-18T04:00:16.938Z,0.00
2019-02-18T04:01:28.047Z,0.00
2019-02-18T04:02:38.670Z,0.00
2019-02-18T04:03:49.785Z,0.00
2019-02-18T04:05:00.904Z,0.00
2019-02-18T04:06:12.019Z,0.00
2019-02-18T04:07:24.132Z,0.00
2019-02-18T04:08:42.538Z,0.00
2019-02-18T04:09:46.393Z,0.00
2019-02-18T04:10:57.011Z,0.00
2019-02-18T04:12:08.129Z,0.00
2019-02-18T04:13:19.222Z,0.00
2019-02-18T04:14:30.356Z,0.00
2019-02-18T04:15:41.464Z,0.00
2019-02-18T04:16:52.612Z,0.00
2019-02-18T04:18:03.727Z,0.00
2019-02-18T04:19:14.350Z,0.00
2019-02-18T04:20:25.605Z,0.00
2019-02-18T04:21:36.710Z,0.00
2019-02-18T04:22:47.816Z,0.00
2019-02-18T04:23:58.941Z,0.00
2019-02-18T04:25:10.056Z,0.00
2019-02-18T04:26:21.161Z,0.00
2019-02-18T04:27:32.281Z,0.00
2019-02-18T04:28:43.384Z,0.00
2019-02-18T04:29:54.507Z,0.00
2019-02-18T04:31:05.632Z,0.00
2019-02-18T04:32:16.249Z,0.00
2019-02-18T04:33:26.860Z,0.00
2019-02-18T04:34:39.003Z,0.00
2019-02-18T04:35:50.105Z,0.00
2019-02-18T04:37:01.205Z,0.00
2019-02-18T04:38:12.320Z,0.00
2019-02-18T04:39:23.437Z,0.00
2019-02-18T04:40:35.557Z,0.00
2019-02-18T04:41:46.662Z,0.00
2019-02-18T04:42:57.765Z,0.00
2019-02-18T04:44:08.883Z,0.00
2019-02-18T04:45:20.008Z,0.00
2019-02-18T04:46:31.141Z,0.00
2019-02-18T04:47:42.250Z,0.00
2019-02-18T04:48:53.348Z,0.00
2019-02-18T04:50:04.615Z,0.00
2019-02-18T04:51:15.722Z,0.00
2019-02-18T04:52:26.836Z,0.00
2019-02-18T04:53:37.943Z,0.00
2019-02-18T04:54:49.063Z,0.00
2019-02-18T04:56:00.181Z,0.00
2019-02-18T04:57:11.307Z,0.00
2019-02-18T04:58:22.416Z,0.00
2019-02-18T04:59:33.543Z,0.00
2019-02-18T05:00:44.156Z,0.00
2019-02-18T05:01:55.269Z,0.00
2019-02-18T05:03:05.881Z,0.00
2019-02-18T05:04:16.983Z,0.00
2019-02-18T05:05:28.094Z,0.00
2019-02-18T05:06:39.210Z,0.00
2019-02-18T05:07:50.313Z,0.00
2019-02-18T05:09:05.422Z,0.00
2019-02-18T05:10:12.030Z,0.00
2019-02-18T05:11:23.141Z,0.00
2019-02-18T05:12:35.239Z,0.00
2019-02-18T05:13:47.357Z,0.00
2019-02-18T05:14:58.634Z,0.00
2019-02-18T05:16:09.742Z,0.00
2019-02-18T05:17:20.863Z,0.00
2019-02-18T05:18:31.965Z,0.00
2019-02-18T05:19:43.067Z,0.00
2019-02-18T05:20:54.170Z,0.00
2019-02-18T05:22:05.278Z,0.00
2019-02-18T05:23:16.382Z,0.00
2019-02-18T05:24:27.495Z,0.00
2019-02-18T05:25:38.621Z,0.00
2019-02-18T05:26:49.238Z,0.00
2019-02-18T05:28:00.362Z,0.00
2019-02-18T05:29:11.459Z,0.00
2019-02-18T05:30:22.611Z,0.00
2019-02-18T05:31:33.726Z,0.00
2019-02-18T05:32:44.839Z,0.00
2019-02-18T05:33:55.944Z,0.00
2019-02-18T05:35:07.065Z,0.00
2019-02-18T05:36:18.166Z,0.00
2019-02-18T05:37:29.271Z,0.00
2019-02-18T05:38:40.369Z,0.00
2019-02-18T05:39:51.470Z,0.00
2019-02-18T05:41:02.582Z,0.00
2019-02-18T05:42:13.699Z,0.00
2019-02-18T05:43:24.818Z,0.00
2019-02-18T05:44:35.925Z,0.00
2019-02-18T05:45:47.034Z,0.00
2019-02-18T05:46:58.151Z,0.00
2019-02-18T05:48:09.260Z,0.00
2019-02-18T05:49:20.381Z,0.00
2019-02-18T05:50:31.494Z,0.00
2019-02-18T05:51:42.612Z,0.00
2019-02-18T05:52:53.724Z,0.00
2019-02-18T05:54:04.833Z,0.00
2019-02-18T05:55:15.927Z,0.00
2019-02-18T05:56:27.030Z,0.00
2019-02-18T05:57:38.153Z,0.00
2019-02-18T05:58:49.262Z,0.00
2019-02-18T06:00:00.506Z,0.00
2019-02-18T06:01:11.521Z,0.00
2019-02-18T06:02:22.622Z,0.00
2019-02-18T06:03:33.738Z,0.00
2019-02-18T06:04:44.916Z,4.00
2019-02-18T06:05:56.032Z,4.00
2019-02-18T06:07:07.132Z,0.00
2019-02-18T06:08:18.250Z,4.00
2019-02-18T06:09:30.387Z,4.00
2019-02-18T06:10:40.450Z,8.00
2019-02-18T06:11:51.562Z,8.00
2019-02-18T06:13:02.699Z,12.00
2019-02-18T06:14:13.801Z,12.00
2019-02-18T06:15:24.916Z,16.00
2019-02-18T06:16:36.032Z,16.00
2019-02-18T06:17:47.138Z,20.00
2019-02-18T06:18:58.253Z,24.00
2019-02-18T06:20:09.358Z,28.00
2019-02-18T06:21:20.628Z,36.00
2019-02-18T06:22:31.735Z,44.00
2019-02-18T06:23:42.848Z,52.00
2019-02-18T06:24:53.952Z,60.00
2019-02-18T06:26:05.071Z,72.00
2019-02-18T06:27:16.184Z,84.00
2019-02-18T06:28:27.315Z,96.00
2019-02-18T06:29:38.428Z,112.00
2019-02-18T06:30:49.531Z,128.00
2019-02-18T06:32:00.641Z,144.00
2019-02-18T06:33:11.792Z,160.00
2019-02-18T06:34:22.846Z,180.00
2019-02-18T06:35:33.946Z,200.00
2019-02-18T06:36:45.054Z,216.00
2019-02-18T06:37:56.150Z,236.00
2019-02-18T06:39:07.261Z,256.00
2019-02-18T06:40:18.364Z,276.00
2019-02-18T06:41:29.481Z,300.00
2019-02-18T06:42:40.622Z,324.00
2019-02-18T06:43:51.733Z,344.00
2019-02-18T06:45:02.854Z,368.00
2019-02-18T06:46:13.970Z,392.00
2019-02-18T06:47:25.303Z,412.00
2019-02-18T06:48:36.190Z,436.00
2019-02-18T06:49:47.291Z,460.00
2019-02-18T06:50:58.403Z,484.00
2019-02-18T06:52:09.519Z,512.00
2019-02-18T06:53:20.638Z,532.00
2019-02-18T06:54:31.738Z,556.00
2019-02-18T06:55:42.847Z,584.00
2019-02-18T06:56:53.972Z,608.00
2019-02-18T06:58:05.077Z,632.00
2019-02-18T06:59:16.186Z,656.00
2019-02-18T07:00:27.286Z,680.00
2019-02-18T07:01:38.412Z,704.00
2019-02-18T07:02:49.515Z,724.00
2019-02-18T07:04:00.632Z,748.00
2019-02-18T07:05:11.733Z,768.00
2019-02-18T07:06:22.837Z,796.00
2019-02-18T07:07:34.946Z,820.00
2019-02-18T07:08:46.770Z,840.00
2019-02-18T07:09:57.152Z,864.00
2019-02-18T07:11:08.271Z,884.00
2019-02-18T07:12:19.373Z,908.00
2019-02-18T07:13:30.625Z,932.00
2019-02-18T07:14:41.727Z,952.00
2019-02-18T07:15:52.840Z,972.00
2019-02-18T07:17:03.968Z,992.00
2019-02-18T07:18:15.082Z,1012.00
2019-02-18T07:19:26.191Z,1032.00
2019-02-18T07:20:37.307Z,1052.00
2019-02-18T07:21:48.407Z,1068.00
2019-02-18T07:22:59.528Z,1088.00
2019-02-18T07:24:10.637Z,1108.00
2019-02-18T07:25:21.746Z,1124.00
2019-02-18T07:26:32.863Z,1140.00
2019-02-18T07:27:43.971Z,1152.00
2019-02-18T07:28:56.082Z,1176.00
2019-02-18T07:30:07.198Z,1192.00
2019-02-18T07:31:18.318Z,1208.00
2019-02-18T07:32:29.432Z,1220.00
2019-02-18T07:33:40.624Z,1236.00
2019-02-18T07:34:51.742Z,1252.00
2019-02-18T07:36:02.841Z,1268.00
2019-02-18T07:37:13.957Z,1280.00
2019-02-18T07:38:25.074Z,1292.00
2019-02-18T07:39:36.179Z,1304.00
2019-02-18T07:40:47.296Z,1316.00
2019-02-18T07:41:58.406Z,1332.00
2019-02-18T07:43:09.533Z,1348.00
2019-02-18T07:44:20.651Z,1364.00
2019-02-18T07:45:31.765Z,1380.00
2019-02-18T07:46:42.874Z,1392.00
2019-02-18T07:47:53.997Z,1408.00
2019-02-18T07:49:05.103Z,1420.00
2019-02-18T07:50:20.745Z,1432.00
2019-02-18T07:51:27.337Z,1444.00
2019-02-18T07:52:38.664Z,1452.00
2019-02-18T07:53:49.783Z,1464.00
2019-02-18T07:55:00.898Z,1476.00
2019-02-18T07:56:12.005Z,1492.00
2019-02-18T07:57:23.130Z,1504.00
2019-02-18T07:58:34.253Z,1516.00
2019-02-18T07:59:45.367Z,1528.00
2019-02-18T08:00:56.633Z,1540.00
2019-02-18T08:02:07.748Z,1544.00
2019-02-18T08:03:18.870Z,1556.00
2019-02-18T08:04:29.985Z,1564.00
2019-02-18T08:05:41.106Z,1576.00
2019-02-18T08:06:52.223Z,1588.00
2019-02-18T08:08:03.348Z,1596.00
2019-02-18T08:09:14.647Z,1604.00
2019-02-18T08:10:25.755Z,1608.00
2019-02-18T08:11:36.877Z,1620.00
2019-02-18T08:12:47.990Z,1628.00
2019-02-18T08:13:59.114Z,1636.00
2019-02-18T08:15:09.744Z,1648.00
2019-02-18T08:16:20.853Z,1660.00
2019-02-18T08:17:32.042Z,1672.00
2019-02-18T08:18:43.099Z,1688.00
2019-02-18T08:19:55.224Z,1696.00
2019-02-18T08:21:06.337Z,1704.00
2019-02-18T08:22:17.451Z,1712.00
2019-02-18T08:23:28.626Z,1724.00
2019-02-18T08:24:39.755Z,1740.00
2019-02-18T08:25:50.879Z,1748.00
2019-02-18T08:27:01.991Z,1764.00
2019-02-18T08:28:13.129Z,1772.00
2019-02-18T08:29:24.236Z,1788.00
2019-02-18T08:30:35.354Z,1800.00
2019-02-18T08:31:46.627Z,1804.00
2019-02-18T08:32:57.740Z,1816.00
2019-02-18T08:34:08.872Z,1824.00
2019-02-18T08:35:19.989Z,1824.00
2019-02-18T08:36:31.122Z,1840.00
2019-02-18T08:37:42.237Z,1848.00
2019-02-18T08:38:53.356Z,1852.00
2019-02-18T08:40:04.631Z,1864.00
2019-02-18T08:41:15.761Z,1880.00
2019-02-18T08:42:26.882Z,1888.00
2019-02-18T08:43:38.028Z,1896.00
2019-02-18T08:44:49.138Z,1904.00
2019-02-18T08:46:00.258Z,1908.00
2019-02-18T08:47:11.402Z,1920.00
2019-02-18T08:48:24.117Z,1924.00
2019-02-18T08:49:33.755Z,1932.00
2019-02-18T08:50:44.882Z,1944.00
2019-02-18T08:51:56.009Z,1960.00
2019-02-18T08:53:07.146Z,1968.00
2019-02-18T08:54:18.283Z,1976.00
2019-02-18T08:55:29.426Z,1984.00
2019-02-18T08:56:40.546Z,1984.00
2019-02-18T08:57:51.674Z,1996.00
2019-02-18T08:59:02.811Z,2000.00
2019-02-18T09:00:13.957Z,2004.00
2019-02-18T09:01:25.087Z,2016.00
2019-02-18T09:02:36.215Z,2028.00
2019-02-18T09:03:47.361Z,2036.00
2019-02-18T09:04:58.654Z,2044.00
2019-02-18T09:06:09.817Z,2052.00
2019-02-18T09:07:20.461Z,2064.00
2019-02-18T09:08:31.609Z,2068.00
2019-02-18T09:09:42.744Z,2072.00
2019-02-18T09:10:53.899Z,2084.00
2019-02-18T09:12:06.035Z,2088.00
2019-02-18T09:13:17.176Z,2096.00
2019-02-18T09:14:28.329Z,2104.00
2019-02-18T09:15:39.501Z,2112.00
2019-02-18T09:16:50.633Z,2132.00
2019-02-18T09:18:01.791Z,2144.00
2019-02-18T09:19:12.939Z,2160.00
2019-02-18T09:20:25.610Z,2160.00
2019-02-18T09:21:35.233Z,2184.00
2019-02-18T09:22:46.381Z,2188.00
2019-02-18T09:23:57.530Z,2200.00
2019-02-18T09:25:08.685Z,2196.00
2019-02-18T09:26:19.839Z,2208.00
2019-02-18T09:27:31.033Z,2220.00
2019-02-18T09:28:42.179Z,2224.00
2019-02-18T09:29:53.618Z,2236.00
2019-02-18T09:31:04.778Z,2256.00
2019-02-18T09:32:15.918Z,2260.00
2019-02-18T09:33:27.069Z,2276.00
2019-02-18T09:34:38.220Z,2284.00
2019-02-18T09:35:49.419Z,2292.00
2019-02-18T09:37:00.647Z,2300.00
2019-02-18T09:38:11.793Z,2308.00
2019-02-18T09:39:30.732Z,2316.00
2019-02-18T09:40:55.104Z,2332.00
2019-02-18T09:42:06.269Z,2348.00
2019-02-18T09:43:17.429Z,2384.00
2019-02-18T09:44:28.628Z,2396.00
2019-02-18T09:45:39.784Z,2404.00
2019-02-18T09:46:50.942Z,2428.00
2019-02-18T09:48:02.110Z,2452.00
2019-02-18T09:49:13.278Z,2460.00
2019-02-18T09:50:24.463Z,2488.00
2019-02-18T09:51:35.619Z,2500.00
2019-02-18T09:52:46.779Z,2524.00
2019-02-18T09:53:57.940Z,2552.00
2019-02-18T09:55:09.104Z,2584.00
2019-02-18T09:56:20.267Z,2600.00
2019-02-18T09:57:31.427Z,2624.00
2019-02-18T09:58:42.628Z,2656.00
2019-02-18T09:59:53.795Z,2692.00
2019-02-18T10:01:04.973Z,2712.00
2019-02-18T10:02:16.143Z,2736.00
2019-02-18T10:03:32.041Z,2748.00
2019-02-18T10:04:38.631Z,2760.00
2019-02-18T10:05:49.773Z,2784.00
2019-02-18T10:07:01.245Z,2812.00
2019-02-18T10:08:12.421Z,2812.00
2019-02-18T10:09:23.597Z,2824.00
2019-02-18T10:10:34.752Z,2824.00
2019-02-18T10:11:45.971Z,2840.00
2019-02-18T10:12:56.619Z,2852.00
2019-02-18T10:14:07.852Z,2856.00
2019-02-18T10:15:19.039Z,2880.00
2019-02-18T10:16:30.354Z,2888.00
2019-02-18T10:17:41.521Z,2896.00
2019-02-18T10:18:52.689Z,2932.00
2019-02-18T10:20:03.879Z,2964.00
2019-02-18T10:21:15.058Z,2968.00
2019-02-18T10:22:26.257Z,2988.00
2019-02-18T10:23:37.432Z,2996.00
2019-02-18T10:24:50.890Z,2984.00
2019-02-18T10:25:59.305Z,2968.00
2019-02-18T10:27:10.630Z,2940.00
2019-02-18T10:28:21.813Z,2948.00
2019-02-18T10:29:33.000Z,2980.00
2019-02-18T10:31:55.362Z,3032.00
2019-02-18T10:33:06.843Z,3048.00
2019-02-18T10:34:18.024Z,3080.00
2019-02-18T10:35:29.240Z,3108.00
2019-02-18T10:36:40.418Z,3092.00
2019-02-18T10:37:55.167Z,3104.00
2019-02-18T10:39:03.238Z,3132.00
2019-02-18T10:40:14.408Z,3108.00
2019-02-18T10:41:25.607Z,3140.00
2019-02-18T10:42:36.862Z,3124.00
2019-02-18T10:43:48.046Z,3148.00
2019-02-18T10:45:12.699Z,3172.00
2019-02-18T10:46:59.888Z,3172.00
2019-02-18T10:48:11.039Z,3168.00
2019-02-18T10:49:23.132Z,3196.00
2019-02-18T10:50:33.414Z,3200.00
2019-02-18T10:51:44.634Z,3216.00
2019-02-18T10:52:56.824Z,3224.00
2019-02-18T10:54:08.015Z,3216.00
2019-02-18T10:55:19.219Z,3208.00
2019-02-18T10:56:30.399Z,3192.00
2019-02-18T10:57:41.596Z,3240.00
2019-02-18T10:58:52.786Z,3268.00
2019-02-18T11:00:03.989Z,3264.00
2019-02-18T11:01:15.174Z,3296.00
2019-02-18T11:02:25.911Z,3348.00
2019-02-18T11:03:37.110Z,3376.00
2019-02-18T11:04:48.301Z,3412.00
2019-02-18T11:05:59.502Z,3404.00
2019-02-18T11:07:10.740Z,3388.00
2019-02-18T11:08:21.960Z,3420.00
2019-02-18T11:09:33.159Z,3420.00
2019-02-18T11:10:44.375Z,3472.00
2019-02-18T11:11:55.586Z,3500.00
2019-02-18T11:13:06.811Z,3540.00
2019-02-18T11:14:18.005Z,3536.00
2019-02-18T11:15:29.209Z,3592.00
2019-02-18T11:16:40.564Z,3608.00
2019-02-18T11:17:51.779Z,3568.00
2019-02-18T11:19:03.015Z,3588.00
2019-02-18T11:20:14.206Z,3572.00
2019-02-18T11:21:25.417Z,3592.00
2019-02-18T11:22:36.811Z,3616.00
2019-02-18T11:23:48.012Z,3692.00
2019-02-18T11:24:59.224Z,3764.00
2019-02-18T11:26:10.438Z,3844.00
2019-02-18T11:27:21.658Z,3836.00
2019-02-18T11:28:32.896Z,3912.00
2019-02-18T11:29:44.113Z,3920.00
2019-02-18T11:30:55.320Z,3964.00
2019-02-18T11:32:06.626Z,4032.00
2019-02-18T11:33:17.977Z,4080.00
2019-02-18T11:34:29.204Z,4108.00
2019-02-18T11:35:40.423Z,4216.00
2019-02-18T11:36:51.649Z,4312.00
2019-02-18T11:38:02.872Z,4412.00
2019-02-18T11:39:14.107Z,4496.00
2019-02-18T11:40:25.336Z,4608.00
2019-02-18T11:41:36.549Z,4748.00
2019-02-18T11:42:47.799Z,4968.00
2019-02-18T11:43:59.012Z,5284.00
2019-02-18T11:45:10.240Z,24352.00
2019-02-18T11:46:21.485Z,45600.00
2019-02-18T11:47:32.750Z,44896.00
2019-02-18T11:48:44.040Z,44064.00
2019-02-18T11:49:55.412Z,43936.00
2019-02-18T11:51:06.651Z,43904.00
2019-02-18T11:52:17.999Z,43968.00
2019-02-18T11:53:29.370Z,43840.00
2019-02-18T11:54:40.758Z,45952.00
2019-02-18T11:55:52.177Z,46784.00
2019-02-18T11:57:03.630Z,46528.00
2019-02-18T11:58:15.106Z,47232.00
2019-02-18T11:59:26.619Z,47040.00
2019-02-18T12:00:38.128Z,47168.00
2019-02-18T12:01:49.668Z,47136.00
2019-02-18T12:03:04.821Z,46496.00
2019-02-18T12:04:12.812Z,46336.00
2019-02-18T12:05:24.409Z,47744.00
2019-02-18T12:06:36.020Z,46624.00
2019-02-18T12:07:47.665Z,46720.00
2019-02-18T12:08:59.332Z,46496.00
2019-02-18T12:10:12.013Z,45984.00
2019-02-18T12:11:23.691Z,45792.00
2019-02-18T12:12:35.393Z,45088.00
2019-02-18T12:13:47.123Z,44672.00
2019-02-18T12:14:58.856Z,44320.00
2019-02-18T12:16:10.666Z,45248.00
2019-02-18T12:17:22.388Z,44768.00
2019-02-18T12:18:34.146Z,45600.00
2019-02-18T12:19:45.920Z,45088.00
2019-02-18T12:20:57.712Z,43424.00
2019-02-18T12:22:11.959Z,43712.00
2019-02-18T12:23:21.301Z,43040.00
2019-02-18T12:24:33.125Z,45120.00
2019-02-18T12:25:44.953Z,45120.00
2019-02-18T12:26:56.784Z,44512.00
2019-02-18T12:28:08.631Z,44384.00
2019-02-18T12:29:26.218Z,43232.00
2019-02-18T12:30:32.656Z,44000.00
2019-02-18T12:31:44.628Z,43616.00
2019-02-18T12:32:56.629Z,43328.00
2019-02-18T12:34:08.625Z,42144.00
2019-02-18T12:35:30.277Z,41696.00
2019-02-18T12:36:32.627Z,40128.00
2019-02-18T12:37:54.974Z,39840.00
2019-02-18T12:39:11.813Z,39392.00
2019-02-18T12:40:24.024Z,39040.00
2019-02-18T12:41:35.936Z,39360.00
2019-02-18T12:42:47.843Z,38752.00
2019-02-18T12:43:59.791Z,39200.00
2019-02-18T12:45:11.711Z,38976.00
2019-02-18T12:46:23.648Z,39488.00
2019-02-18T12:47:35.567Z,40384.00
2019-02-18T12:48:47.513Z,38784.00
2019-02-18T12:49:59.454Z,38624.00
2019-02-18T12:51:11.390Z,37472.00
2019-02-18T12:52:23.327Z,38560.00
2019-02-18T12:53:35.270Z,37280.00
2019-02-18T12:54:47.372Z,37568.00
2019-02-18T12:55:59.167Z,39008.00
2019-02-18T12:57:11.134Z,38336.00
2019-02-18T12:58:23.089Z,37856.00
2019-02-18T12:59:35.139Z,36928.00
2019-02-18T13:00:47.016Z,35968.00
2019-02-18T13:01:58.984Z,34560.00
2019-02-18T13:03:10.951Z,36000.00
2019-02-18T13:04:22.918Z,34752.00
2019-02-18T13:05:34.882Z,35712.00
2019-02-18T13:06:46.847Z,36288.00
2019-02-18T13:07:58.820Z,35232.00
2019-02-18T13:09:10.804Z,36448.00
2019-02-18T13:12:48.039Z,35872.00
2019-02-18T13:14:00.046Z,34592.00
2019-02-18T13:15:12.037Z,34080.00
2019-02-18T13:16:24.012Z,34240.00
2019-02-18T13:17:36.010Z,33920.00
2019-02-18T13:18:47.966Z,35136.00
2019-02-18T13:19:59.942Z,34368.00
2019-02-18T13:21:11.935Z,34080.00
2019-02-18T13:22:23.921Z,32832.00
2019-02-18T13:23:35.894Z,31488.00
2019-02-18T13:24:47.873Z,29856.00
2019-02-18T13:25:59.835Z,22528.00
2019-02-18T13:27:11.802Z,7908.00
2019-02-18T13:28:23.751Z,5988.00
2019-02-18T13:29:35.678Z,5864.00
2019-02-18T13:30:47.589Z,5780.00
2019-02-18T13:31:59.464Z,5720.00
2019-02-18T13:33:11.314Z,5696.00
2019-02-18T13:34:23.153Z,5672.00
2019-02-18T13:35:34.971Z,5604.00
2019-02-18T13:36:46.757Z,5444.00
2019-02-18T13:37:58.646Z,5316.00
2019-02-18T13:39:10.388Z,5264.00
2019-02-18T13:40:22.119Z,5204.00
2019-02-18T13:41:33.819Z,5120.00
2019-02-18T13:42:45.507Z,5100.00
2019-02-18T13:43:57.174Z,5168.00
2019-02-18T13:45:08.821Z,5208.00
2019-02-18T13:46:20.628Z,5360.00
2019-02-18T13:47:32.262Z,5532.00
2019-02-18T13:48:43.882Z,5768.00
2019-02-18T13:49:55.519Z,6076.00
2019-02-18T13:51:07.109Z,6244.00
2019-02-18T13:52:18.710Z,6324.00
2019-02-18T13:53:30.298Z,6508.00
2019-02-18T13:54:41.931Z,8292.00
2019-02-18T13:55:53.528Z,19680.00
2019-02-18T13:57:09.932Z,21184.00
2019-02-18T13:58:17.108Z,22176.00
2019-02-18T13:59:28.707Z,21504.00
2019-02-18T14:00:40.316Z,19776.00
2019-02-18T14:01:51.978Z,20384.00
2019-02-18T14:03:03.602Z,22976.00
2019-02-18T14:04:15.287Z,23936.00
2019-02-18T14:05:26.902Z,22976.00
2019-02-18T14:06:39.559Z,22464.00
2019-02-18T14:07:51.232Z,22976.00
2019-02-18T14:09:02.915Z,23616.00
2019-02-18T14:10:14.631Z,22528.00
2019-02-18T14:11:26.336Z,21280.00
2019-02-18T14:12:38.028Z,21152.00
2019-02-18T14:13:49.748Z,21952.00
2019-02-18T14:15:01.470Z,22560.00
2019-02-18T14:16:13.185Z,21984.00
2019-02-18T14:17:24.914Z,21536.00
2019-02-18T14:18:36.638Z,21152.00
2019-02-18T14:19:49.362Z,20352.00
2019-02-18T14:21:01.110Z,18944.00
2019-02-18T14:22:12.872Z,20640.00
2019-02-18T14:23:24.627Z,18912.00
2019-02-18T14:24:36.378Z,15616.00
2019-02-18T14:25:48.134Z,14496.00
2019-02-18T14:26:59.898Z,15520.00
2019-02-18T14:28:11.697Z,13576.00
2019-02-18T14:29:23.434Z,15424.00
2019-02-18T14:30:35.191Z,15712.00
2019-02-18T14:31:46.932Z,12960.00
2019-02-18T14:32:58.656Z,12188.00
2019-02-18T14:34:10.397Z,14816.00
2019-02-18T14:35:22.117Z,15840.00
2019-02-18T14:36:33.844Z,15072.00
2019-02-18T14:37:45.558Z,14464.00
2019-02-18T14:38:57.299Z,16096.00
2019-02-18T14:40:09.043Z,16512.00
2019-02-18T14:41:22.006Z,16736.00
2019-02-18T14:42:33.722Z,15840.00
2019-02-18T14:43:45.439Z,15008.00
2019-02-18T14:44:58.163Z,14240.00
2019-02-18T14:46:09.906Z,14240.00
2019-02-18T14:47:21.691Z,13452.00
2019-02-18T14:48:33.378Z,13240.00
2019-02-18T14:49:45.110Z,13028.00
2019-02-18T14:50:57.143Z,12700.00
2019-02-18T14:52:08.696Z,12356.00
2019-02-18T14:53:20.415Z,11492.00
2019-02-18T14:54:33.121Z,11196.00
2019-02-18T14:55:44.839Z,10808.00
2019-02-18T14:56:57.461Z,10868.00
2019-02-18T14:58:09.191Z,10512.00
2019-02-18T14:59:20.910Z,10052.00